Time;durP1;ratioP1;P1;durP2;ratioP2;P2;SDS_P1;SDS_P2;PMS_P1;PMS_P2;Temp;Humidity;BMP_temperature;BMP_pressure;BME280_temperature;BME280_humidity;BME280_pressure;Samples;Min_cycle;Max_cycle;Signal;HPM_P1;HPM_P2
2022/11/05 00:09:28;;;;;;;4.22;1.20;;;;;;;;;;5010623;28;20049;-73
2022/11/05 00:17:09;;;;;;;4.35;1.95;;;;;;;;;;5071850;28;20490;-73
2022/11/05 00:19:35;;;;;;;6.97;2.17;;;;;;;;;;5071889;28;20029;-73
2022/11/05 00:27:33;;;;;;;7.50;2.08;;;;;;;;;;5076018;28;20511;-73
2022/11/05 00:29:59;;;;;;;8.43;2.72;;;;;;;;;;5076315;28;20021;-73
2022/11/05 00:32:25;;;;;;;5.63;2.10;;;;;;;;;;5075758;28;20415;-73
2022/11/05 00:34:52;;;;;;;7.57;2.42;;;;;;;;;;5075884;28;20020;-73
2022/11/05 00:37:18;;;;;;;6.15;1.95;;;;;;;;;;5075603;28;20412;-73
2022/11/05 00:39:44;;;;;;;9.43;2.88;;;;;;;;;;5074403;28;20496;-73
2022/11/05 00:45:02;;;;;;;5.45;1.40;;;;;;;;;;5075428;28;20039;-73
2022/11/05 00:50:14;;;;;;;4.88;1.52;;;;;;;;;;5074126;28;20028;-73
2022/11/05 00:55:38;;;;;;;4.43;1.50;;;;;;;;;;5075072;28;20024;-73
2022/11/05 00:58:10;;;;;;;5.20;1.67;;;;;;;;;;5075470;28;20028;-73
2022/11/05 01:00:37;;;;;;;7.05;1.63;;;;;;;;;;5075429;28;20064;-73
2022/11/05 01:03:05;;;;;;;8.05;1.60;;;;;;;;;;5075160;28;20041;-73
2022/11/05 01:05:32;;;;;;;3.45;1.40;;;;;;;;;;5075307;28;20028;-73
2022/11/05 01:07:59;;;;;;;8.10;2.00;;;;;;;;;;5075294;28;20028;-73
2022/11/05 01:10:26;;;;;;;4.32;1.33;;;;;;;;;;5075198;28;20085;-73
2022/11/05 01:12:52;;;;;;;6.63;1.45;;;;;;;;;;5075150;28;20016;-73
2022/11/05 01:15:19;;;;;;;4.90;1.63;;;;;;;;;;5075028;28;20420;-72
2022/11/05 01:17:45;;;;;;;4.00;1.05;;;;;;;;;;5075000;28;20024;-73
2022/11/05 01:20:12;;;;;;;5.10;1.70;;;;;;;;;;5073304;28;20103;-73
2022/11/05 01:22:38;;;;;;;3.50;1.35;;;;;;;;;;5075013;28;20029;-73
2022/11/05 01:25:06;;;;;;;3.80;1.20;;;;;;;;;;5074926;28;20032;-73
2022/11/05 01:27:32;;;;;;;6.90;1.48;;;;;;;;;;5075066;28;20035;-73
2022/11/05 01:29:58;;;;;;;7.03;1.38;;;;;;;;;;5073576;28;20030;-73
2022/11/05 01:32:25;;;;;;;4.43;1.30;;;;;;;;;;5074922;28;20029;-73
2022/11/05 01:34:51;;;;;;;7.55;1.77;;;;;;;;;;5074532;28;20542;-73
2022/11/05 01:37:17;;;;;;;7.30;1.27;;;;;;;;;;5074140;28;20028;-72
2022/11/05 01:39:44;;;;;;;3.92;1.45;;;;;;;;;;5074610;28;20033;-73
2022/11/05 01:42:14;;;;;;;4.18;1.25;;;;;;;;;;5073345;28;20041;-73
2022/11/05 01:44:54;;;;;;;6.43;1.30;;;;;;;;;;5074273;28;20105;-73
2022/11/05 01:47:27;;;;;;;4.15;1.30;;;;;;;;;;5074554;28;20024;-73
2022/11/05 01:49:54;;;;;;;4.82;1.30;;;;;;;;;;5074069;28;20496;-73
2022/11/05 01:52:21;;;;;;;4.85;1.80;;;;;;;;;;5074163;28;20396;-74
2022/11/05 01:54:47;;;;;;;6.03;1.73;;;;;;;;;;5073347;28;20017;-73
2022/11/05 01:57:14;;;;;;;7.25;1.63;;;;;;;;;;5074757;28;20033;-73
2022/11/05 01:59:42;;;;;;;7.30;1.85;;;;;;;;;;5074211;28;20024;-73
2022/11/05 02:02:09;;;;;;;8.55;2.22;;;;;;;;;;5074507;28;20032;-73
2022/11/05 02:04:40;;;;;;;4.80;1.80;;;;;;;;;;5073695;28;20035;-73
2022/11/05 02:07:08;;;;;;;6.22;1.88;;;;;;;;;;5074033;28;20050;-73
2022/11/05 02:09:38;;;;;;;5.63;1.58;;;;;;;;;;5074416;28;20016;-73
2022/11/05 02:12:06;;;;;;;3.63;1.60;;;;;;;;;;5074512;28;20033;-73
2022/11/05 02:14:33;;;;;;;2.83;1.65;;;;;;;;;;5073851;28;20052;-73
2022/11/05 02:17:10;;;;;;;8.10;2.20;;;;;;;;;;5073841;28;20031;-72
2022/11/05 02:19:55;;;;;;;4.38;1.70;;;;;;;;;;5073684;28;20612;-73
2022/11/05 02:22:37;;;;;;;5.35;1.80;;;;;;;;;;5073894;28;20038;-73
2022/11/05 02:25:22;;;;;;;6.53;2.17;;;;;;;;;;5074045;28;20035;-73
2022/11/05 02:27:54;;;;;;;5.30;2.17;;;;;;;;;;5073688;28;20028;-73
2022/11/05 02:30:40;;;;;;;5.80;1.92;;;;;;;;;;5073634;28;20031;-73
2022/11/05 02:33:12;;;;;;;9.43;2.75;;;;;;;;;;5073322;28;20024;-73
2022/11/05 02:35:58;;;;;;;6.65;1.70;;;;;;;;;;5072256;28;20025;-73
2022/11/05 02:38:27;;;;;;;7.38;1.83;;;;;;;;;;5073603;28;20047;-73
2022/11/05 02:41:03;;;;;;;9.25;2.00;;;;;;;;;;5073397;28;20021;-72
2022/11/05 02:43:48;;;;;;;6.68;1.67;;;;;;;;;;5073208;28;20025;-73
2022/11/05 02:46:25;;;;;;;7.95;1.90;;;;;;;;;;5072996;28;20021;-73
2022/11/05 02:49:00;;;;;;;12.55;1.95;;;;;;;;;;5073321;28;20017;-72
2022/11/05 02:51:37;;;;;;;3.47;1.58;;;;;;;;;;5073520;28;20040;-73
2022/11/05 02:54:12;;;;;;;2.97;1.60;;;;;;;;;;5073236;28;20099;-73
2022/11/05 02:56:44;;;;;;;7.55;2.58;;;;;;;;;;5073290;28;20019;-73
2022/11/05 02:59:10;;;;;;;8.40;2.55;;;;;;;;;;5072979;28;20388;-73
2022/11/05 03:01:39;;;;;;;5.90;1.70;;;;;;;;;;5071411;28;20059;-73
2022/11/05 03:04:07;;;;;;;9.68;1.90;;;;;;;;;;5071970;28;20032;-73
2022/11/05 03:06:44;;;;;;;3.60;1.90;;;;;;;;;;5073058;28;20025;-73
2022/11/05 03:09:16;;;;;;;7.47;1.65;;;;;;;;;;5072306;28;20039;-73
2022/11/05 03:11:43;;;;;;;5.88;1.85;;;;;;;;;;5072856;28;20023;-73
2022/11/05 03:14:22;;;;;;;2.45;1.40;;;;;;;;;;5072717;28;20401;-73
2022/11/05 03:17:15;;;;;;;4.80;1.83;;;;;;;;;;5072514;28;20024;-73
2022/11/05 03:19:48;;;;;;;4.80;1.80;;;;;;;;;;5070559;28;20033;-73
2022/11/05 03:22:26;;;;;;;8.50;2.10;;;;;;;;;;5030395;28;20118;-73
2022/11/05 03:24:55;;;;;;;6.70;1.85;;;;;;;;;;5030125;28;20047;-72
2022/11/05 03:27:26;;;;;;;7.07;2.15;;;;;;;;;;5030611;28;20025;-73
2022/11/05 03:29:56;;;;;;;5.47;1.90;;;;;;;;;;5030035;28;20034;-73
2022/11/05 03:32:23;;;;;;;6.15;1.67;;;;;;;;;;5030365;28;20440;-73
2022/11/05 03:34:51;;;;;;;7.40;2.13;;;;;;;;;;5042326;28;20024;-73
2022/11/05 03:37:19;;;;;;;6.47;1.80;;;;;;;;;;5050653;28;20040;-73
2022/11/05 03:39:49;;;;;;;9.15;2.20;;;;;;;;;;5050224;28;20090;-73
2022/11/05 03:42:18;;;;;;;11.85;2.60;;;;;;;;;;5049840;28;20029;-73
2022/11/05 03:44:46;;;;;;;6.57;1.88;;;;;;;;;;5049683;28;20404;-73
2022/11/05 03:47:18;;;;;;;8.52;2.20;;;;;;;;;;5050091;28;20512;-73
2022/11/05 03:49:50;;;;;;;7.35;2.55;;;;;;;;;;5033055;28;20033;-73
2022/11/05 03:52:18;;;;;;;7.18;2.17;;;;;;;;;;5050217;28;20155;-73
2022/11/05 03:54:44;;;;;;;7.82;2.00;;;;;;;;;;5049979;28;20021;-73
2022/11/05 03:57:31;;;;;;;8.18;2.30;;;;;;;;;;5051690;28;20048;-73
2022/11/05 03:59:57;;;;;;;11.00;2.60;;;;;;;;;;5051550;28;20029;-73
2022/11/05 04:02:25;;;;;;;3.97;1.70;;;;;;;;;;5051836;28;20474;-73
2022/11/05 04:04:51;;;;;;;7.15;2.25;;;;;;;;;;5051990;28;20033;-73
2022/11/05 04:17:05;;;;;;;7.75;2.65;;;;;;;;;;5071813;28;20051;-73
2022/11/05 04:18:19;;;;;;;7.70;2.70;;;;;;;;;;5072057;28;20031;-73
2022/11/05 04:26:22;;;;;;;8.68;1.77;;;;;;;;;;5071886;28;20017;-73
2022/11/05 04:31:34;;;;;;;7.72;1.80;;;;;;;;;;5071656;28;20025;-73
2022/11/05 04:34:00;;;;;;;6.38;1.95;;;;;;;;;;5054099;28;20033;-72
2022/11/05 04:36:26;;;;;;;7.15;1.67;;;;;;;;;;5071642;28;20480;-73
2022/11/05 04:38:53;;;;;;;8.40;1.88;;;;;;;;;;5071994;28;20021;-73
2022/11/05 04:41:19;;;;;;;7.88;2.17;;;;;;;;;;5071680;28;20020;-73
2022/11/05 04:43:45;;;;;;;4.10;1.83;;;;;;;;;;5071304;28;20512;-73
2022/11/05 04:46:12;;;;;;;4.22;1.50;;;;;;;;;;5071891;28;20035;-73
2022/11/05 04:48:38;;;;;;;7.65;1.50;;;;;;;;;;5070515;28;20024;-72
2022/11/05 04:51:05;;;;;;;7.43;1.83;;;;;;;;;;5071324;28;20031;-73
2022/11/05 04:53:31;;;;;;;3.63;1.40;;;;;;;;;;5071709;28;20027;-73
2022/11/05 04:56:33;;;;;;;3.55;1.73;;;;;;;;;;5071500;28;20389;-73
2022/11/05 04:58:59;;;;;;;3.65;1.50;;;;;;;;;;5069235;28;20396;-73
2022/11/05 05:01:25;;;;;;;4.07;1.40;;;;;;;;;;5069470;28;20043;-73
2022/11/05 05:03:52;;;;;;;6.40;1.40;;;;;;;;;;5069441;28;20036;-73
2022/11/05 05:06:19;;;;;;;6.32;1.50;;;;;;;;;;5069104;28;20047;-73
2022/11/05 05:08:49;;;;;;;3.53;1.42;;;;;;;;;;5069349;28;20040;-73
2022/11/05 05:11:16;;;;;;;8.18;1.55;;;;;;;;;;5070236;28;20021;-73
2022/11/05 05:13:42;;;;;;;9.20;1.80;;;;;;;;;;5072663;28;20049;-73
2022/11/05 05:16:15;;;;;;;6.13;1.60;;;;;;;;;;5072990;28;20163;-73
2022/11/05 05:18:41;;;;;;;4.45;1.65;;;;;;;;;;5072702;28;20031;-73
2022/11/05 05:23:53;;;;;;;6.00;1.92;;;;;;;;;;5072506;28;20063;-73
2022/11/05 05:26:19;;;;;;;5.70;1.90;;;;;;;;;;5072540;28;20063;-73
2022/11/05 05:28:45;;;;;;;7.18;1.60;;;;;;;;;;5072789;28;20031;-73
2022/11/05 05:31:12;;;;;;;7.32;1.83;;;;;;;;;;5072554;28;20035;-73
2022/11/05 05:33:38;;;;;;;8.40;1.55;;;;;;;;;;5074633;28;20037;-73
2022/11/05 05:36:05;;;;;;;5.28;2.08;;;;;;;;;;5074492;28;20020;-72
2022/11/05 05:38:31;;;;;;;7.10;1.73;;;;;;;;;;5074705;28;20086;-73
2022/11/05 05:40:58;;;;;;;9.13;1.80;;;;;;;;;;5074052;28;20032;-73
2022/11/05 05:43:25;;;;;;;5.55;1.98;;;;;;;;;;5074593;28;20081;-73
2022/11/05 05:45:52;;;;;;;5.55;1.88;;;;;;;;;;5073578;28;20031;-73
2022/11/05 05:48:18;;;;;;;6.95;2.05;;;;;;;;;;5074305;28;20028;-73
2022/11/05 05:50:44;;;;;;;5.65;1.80;;;;;;;;;;5074810;28;20082;-73
2022/11/05 05:53:10;;;;;;;7.90;2.00;;;;;;;;;;5074372;28;20017;-73
2022/11/05 05:55:37;;;;;;;5.18;1.48;;;;;;;;;;5073870;28;20074;-73
2022/11/05 05:58:03;;;;;;;6.35;1.92;;;;;;;;;;5074496;28;20036;-72
2022/11/05 06:00:29;;;;;;;6.97;1.70;;;;;;;;;;5074378;28;20027;-73
2022/11/05 06:02:56;;;;;;;4.13;1.50;;;;;;;;;;5074183;28;20062;-73
2022/11/05 06:05:22;;;;;;;3.25;1.48;;;;;;;;;;5073601;28;20191;-73
2022/11/05 06:07:54;;;;;;;2.92;1.58;;;;;;;;;;5074001;28;20028;-73
2022/11/05 06:10:21;;;;;;;5.30;1.83;;;;;;;;;;5073885;28;20017;-73
2022/11/05 06:12:47;;;;;;;5.25;1.58;;;;;;;;;;5074433;28;20028;-73
2022/11/05 06:15:13;;;;;;;7.53;2.20;;;;;;;;;;5074049;28;20044;-73
2022/11/05 06:17:40;;;;;;;7.63;1.92;;;;;;;;;;5074200;28;20032;-72
2022/11/05 06:20:07;;;;;;;7.80;2.13;;;;;;;;;;5073952;28;20507;-73
2022/11/05 06:22:33;;;;;;;5.50;1.73;;;;;;;;;;5073717;28;20038;-73
2022/11/05 06:25:00;;;;;;;4.70;1.55;;;;;;;;;;5073456;28;20393;-72
2022/11/05 06:27:27;;;;;;;12.27;4.93;;;;;;;;;;5073894;28;20024;-73
2022/11/05 06:29:54;;;;;;;27.70;10.90;;;;;;;;;;5073453;28;20021;-72
2022/11/05 06:32:20;;;;;;;6.97;2.60;;;;;;;;;;5073707;28;20097;-73
2022/11/05 06:34:47;;;;;;;11.50;3.67;;;;;;;;;;5072569;28;20017;-73
2022/11/05 06:37:13;;;;;;;9.93;2.55;;;;;;;;;;5073407;28;20404;-74
2022/11/05 06:39:39;;;;;;;6.53;2.10;;;;;;;;;;5073139;28;20470;-73
2022/11/05 06:42:05;;;;;;;7.38;2.50;;;;;;;;;;5073740;28;20028;-73
2022/11/05 06:44:32;;;;;;;7.60;2.38;;;;;;;;;;5073365;28;20035;-73
2022/11/05 06:46:59;;;;;;;5.88;1.67;;;;;;;;;;5073179;28;20393;-74
2022/11/05 06:49:25;;;;;;;5.35;1.60;;;;;;;;;;5073403;28;20032;-73
2022/11/05 06:51:52;;;;;;;5.78;1.73;;;;;;;;;;5073696;28;20028;-73
2022/11/05 06:54:18;;;;;;;3.17;1.42;;;;;;;;;;5073008;28;20508;-73
2022/11/05 06:56:44;;;;;;;4.38;1.33;;;;;;;;;;5073568;28;20017;-73
2022/11/05 06:59:11;;;;;;;4.03;1.20;;;;;;;;;;5073223;28;20028;-73
2022/11/05 07:01:37;;;;;;;3.88;1.20;;;;;;;;;;5072885;28;20098;-73
2022/11/05 07:04:03;;;;;;;2.97;1.40;;;;;;;;;;5073140;28;20774;-73
2022/11/05 07:06:30;;;;;;;5.97;1.50;;;;;;;;;;5073054;28;20383;-73
2022/11/05 07:08:56;;;;;;;6.28;1.75;;;;;;;;;;5072554;28;20016;-73
2022/11/05 07:11:22;;;;;;;7.10;1.83;;;;;;;;;;5072915;28;20469;-73
2022/11/05 07:13:48;;;;;;;3.80;1.48;;;;;;;;;;5072783;28;20036;-73
2022/11/05 07:16:15;;;;;;;3.00;1.45;;;;;;;;;;5072854;28;20481;-73
2022/11/05 07:18:41;;;;;;;4.43;1.42;;;;;;;;;;5072831;28;20477;-73
2022/11/05 07:21:07;;;;;;;3.80;1.38;;;;;;;;;;5072371;28;20037;-73
2022/11/05 07:23:34;;;;;;;5.97;1.25;;;;;;;;;;5072354;28;20043;-73
2022/11/05 07:26:00;;;;;;;4.05;1.27;;;;;;;;;;5072851;28;20025;-73
2022/11/05 07:28:26;;;;;;;5.22;1.38;;;;;;;;;;5072553;28;20397;-73
2022/11/05 07:30:53;;;;;;;3.72;1.20;;;;;;;;;;5072477;28;20027;-73
2022/11/05 07:33:19;;;;;;;4.90;1.27;;;;;;;;;;5072014;28;20035;-73
2022/11/05 07:35:45;;;;;;;6.43;1.40;;;;;;;;;;5072286;28;20023;-73
2022/11/05 07:38:12;;;;;;;4.32;1.20;;;;;;;;;;5071030;28;20033;-73
2022/11/05 07:40:38;;;;;;;4.47;1.27;;;;;;;;;;5071159;28;20031;-73
2022/11/05 07:43:04;;;;;;;9.32;3.60;;;;;;;;;;5072180;28;20028;-73
2022/11/05 07:45:31;;;;;;;6.82;1.30;;;;;;;;;;5072056;28;20432;-73
2022/11/05 07:47:59;;;;;;;1.92;1.13;;;;;;;;;;5072577;28;20024;-73
2022/11/05 07:50:27;;;;;;;2.28;0.90;;;;;;;;;;5071864;28;20025;-73
2022/11/05 07:52:53;;;;;;;3.58;1.55;;;;;;;;;;5072321;28;20031;-73
2022/11/05 07:55:19;;;;;;;3.85;1.90;;;;;;;;;;5071025;28;20038;-73
2022/11/05 07:57:47;;;;;;;4.43;1.60;;;;;;;;;;5070588;28;20393;-74
2022/11/05 08:00:15;;;;;;;4.50;1.92;;;;;;;;;;5070987;28;20024;-73
2022/11/05 08:02:42;;;;;;;4.07;1.98;;;;;;;;;;5072084;28;20093;-73
2022/11/05 08:05:09;;;;;;;4.20;2.20;;;;;;;;;;5087421;28;20028;-73
2022/11/05 08:07:35;;;;;;;3.13;1.95;;;;;;;;;;5071986;28;20035;-73
2022/11/05 08:10:03;;;;;;;4.22;2.00;;;;;;;;;;5071868;28;20023;-73
2022/11/05 08:12:30;;;;;;;4.20;1.80;;;;;;;;;;5070794;28;20044;-73
2022/11/05 08:14:56;;;;;;;2.40;1.50;;;;;;;;;;5071860;28;20040;-73
2022/11/05 08:17:22;;;;;;;5.82;1.77;;;;;;;;;;5071913;28;20393;-73
2022/11/05 08:19:49;;;;;;;3.17;1.38;;;;;;;;;;5071747;28;20024;-73
2022/11/05 08:22:15;;;;;;;6.00;1.42;;;;;;;;;;5071580;28;20455;-73
2022/11/05 08:24:41;;;;;;;5.47;1.80;;;;;;;;;;5071962;28;20035;-73
2022/11/05 08:27:08;;;;;;;3.33;1.52;;;;;;;;;;5071785;28;20082;-73
2022/11/05 08:29:34;;;;;;;4.40;1.80;;;;;;;;;;5071850;28;20024;-73
2022/11/05 08:32:00;;;;;;;3.70;2.35;;;;;;;;;;5071797;28;20354;-73
2022/11/05 08:34:26;;;;;;;3.60;2.00;;;;;;;;;;5071707;28;20331;-74
2022/11/05 08:36:53;;;;;;;3.30;1.70;;;;;;;;;;5071647;28;20031;-73
2022/11/05 08:39:19;;;;;;;3.88;2.38;;;;;;;;;;5087405;28;20024;-73
2022/11/05 08:41:46;;;;;;;4.75;1.98;;;;;;;;;;5091986;28;20024;-73
2022/11/05 08:44:12;;;;;;;3.38;2.00;;;;;;;;;;5088744;28;20029;-73
2022/11/05 08:46:38;;;;;;;5.38;2.10;;;;;;;;;;5074221;28;20028;-74
2022/11/05 08:49:05;;;;;;;5.93;1.88;;;;;;;;;;5075053;28;20435;-74
2022/11/05 08:51:31;;;;;;;5.13;2.00;;;;;;;;;;5075479;28;20026;-73
2022/11/05 08:53:57;;;;;;;2.75;1.80;;;;;;;;;;5075658;28;20025;-74
2022/11/05 08:56:23;;;;;;;3.25;1.83;;;;;;;;;;5075680;28;20028;-73
2022/11/05 08:58:50;;;;;;;5.18;2.00;;;;;;;;;;5075170;28;20025;-73
2022/11/05 09:01:16;;;;;;;2.45;1.60;;;;;;;;;;5075421;28;20025;-73
2022/11/05 09:03:43;;;;;;;3.60;1.17;;;;;;;;;;5074755;28;20041;-73
2022/11/05 09:06:09;;;;;;;2.97;1.05;;;;;;;;;;5075693;28;20035;-73
2022/11/05 09:08:35;;;;;;;1.70;1.20;;;;;;;;;;5088621;28;20024;-73
2022/11/05 09:11:01;;;;;;;2.30;1.10;;;;;;;;;;5079245;28;20023;-73
2022/11/05 09:13:28;;;;;;;3.83;1.33;;;;;;;;;;5073818;28;20392;-73
2022/11/05 09:15:54;;;;;;;2.35;1.30;;;;;;;;;;5075417;28;20040;-73
2022/11/05 09:18:21;;;;;;;6.03;1.10;;;;;;;;;;5074444;28;20085;-73
2022/11/05 09:20:47;;;;;;;3.15;1.20;;;;;;;;;;5074880;28;20028;-74
2022/11/05 09:23:15;;;;;;;3.58;1.35;;;;;;;;;;5074988;28;20052;-73
2022/11/05 09:25:41;;;;;;;2.55;1.20;;;;;;;;;;5074901;28;20021;-74
2022/11/05 09:28:10;;;;;;;3.45;1.10;;;;;;;;;;5075306;28;20031;-73
2022/11/05 09:30:44;;;;;;;2.70;1.00;;;;;;;;;;5074920;28;20020;-73
2022/11/05 09:33:10;;;;;;;1.63;1.20;;;;;;;;;;5074581;28;20020;-73
2022/11/05 09:35:38;;;;;;;1.52;1.10;;;;;;;;;;5074708;28;20039;-73
2022/11/05 09:38:05;;;;;;;2.80;1.60;;;;;;;;;;5074650;28;20027;-73
2022/11/05 09:40:32;;;;;;;4.00;1.02;;;;;;;;;;5074493;28;20016;-73
2022/11/05 09:42:59;;;;;;;2.13;1.30;;;;;;;;;;5074557;28;20040;-73
2022/11/05 09:45:26;;;;;;;2.50;1.20;;;;;;;;;;5074396;28;20027;-73
2022/11/05 09:48:03;;;;;;;2.58;1.30;;;;;;;;;;5074468;28;20025;-74
2022/11/05 09:50:32;;;;;;;3.33;1.27;;;;;;;;;;5073220;28;20031;-74
2022/11/05 09:52:58;;;;;;;4.45;1.60;;;;;;;;;;5074521;28;20020;-74
2022/11/05 09:55:28;;;;;;;3.08;1.20;;;;;;;;;;5074822;28;20021;-73
2022/11/05 09:57:56;;;;;;;2.50;1.10;;;;;;;;;;5073751;28;20020;-73
2022/11/05 10:00:23;;;;;;;3.70;1.20;;;;;;;;;;5074244;28;20028;-73
2022/11/05 10:02:52;;;;;;;3.38;1.42;;;;;;;;;;5074067;28;20028;-74
2022/11/05 10:05:19;;;;;;;4.22;1.63;;;;;;;;;;5074303;28;20025;-73
2022/11/05 10:07:50;;;;;;;3.55;1.58;;;;;;;;;;5073971;28;20485;-73
2022/11/05 10:10:17;;;;;;;;;;;;;;;;;;5073305;28;20032;-73
2022/11/05 10:12:46;;;;;;;6.55;1.23;;;;;;;;;;5074169;28;19908;-74
2022/11/05 10:15:16;;;;;;;2.25;1.15;;;;;;;;;;5073984;28;20058;-73
2022/11/05 10:17:45;;;;;;;3.78;1.42;;;;;;;;;;5073803;28;20481;-73
2022/11/05 10:20:12;;;;;;;3.08;1.35;;;;;;;;;;5072979;28;20024;-73
2022/11/05 10:22:38;;;;;;;3.30;1.20;;;;;;;;;;5073841;28;20542;-73
2022/11/05 10:25:14;;;;;;;2.03;1.10;;;;;;;;;;5073828;28;20020;-73
2022/11/05 10:27:41;;;;;;;2.53;1.30;;;;;;;;;;5073836;28;20032;-73
2022/11/05 10:30:09;;;;;;;2.95;1.08;;;;;;;;;;5073474;28;20477;-73
2022/11/05 10:32:37;;;;;;;2.47;0.82;;;;;;;;;;5073957;28;20052;-73
2022/11/05 10:35:05;;;;;;;7.30;2.50;;;;;;;;;;5073631;28;20028;-73
2022/11/05 10:37:32;;;;;;;6.97;2.40;;;;;;;;;;5073466;28;20019;-73
2022/11/05 10:39:59;;;;;;;4.63;1.50;;;;;;;;;;5073574;28;20029;-73
2022/11/05 10:42:25;;;;;;;5.18;1.58;;;;;;;;;;5073618;28;20037;-73
2022/11/05 10:45:01;;;;;;;2.67;0.90;;;;;;;;;;5073119;28;20432;-73
2022/11/05 10:47:39;;;;;;;6.10;1.40;;;;;;;;;;5073324;28;20021;-73
2022/11/05 10:50:15;;;;;;;4.07;1.70;;;;;;;;;;5073333;28;20393;-73
2022/11/05 10:53:04;;;;;;;4.80;1.30;;;;;;;;;;5073405;28;20028;-74
2022/11/05 10:55:35;;;;;;;5.95;2.03;;;;;;;;;;5072601;28;20035;-74
2022/11/05 10:58:17;;;;;;;2.15;0.85;;;;;;;;;;5072420;28;20040;-73
2022/11/05 11:00:49;;;;;;;11.15;3.80;;;;;;;;;;5072577;28;20443;-73
2022/11/05 11:03:37;;;;;;;2.97;1.00;;;;;;;;;;5073232;28;20489;-73
2022/11/05 11:06:06;;;;;;;3.90;1.05;;;;;;;;;;5073062;28;20035;-73
2022/11/05 11:08:34;;;;;;;2.45;0.80;;;;;;;;;;5071967;28;20020;-73
2022/11/05 11:11:10;;;;;;;2.88;1.10;;;;;;;;;;5072856;28;20179;-73
2022/11/05 11:13:55;;;;;;;2.20;1.02;;;;;;;;;;5072392;28;20037;-73
2022/11/05 11:16:22;;;;;;;3.00;1.10;;;;;;;;;;5072844;28;20032;-73
2022/11/05 11:18:52;;;;;;;2.10;0.90;;;;;;;;;;5072868;28;20077;-73
2022/11/05 11:21:21;;;;;;;4.35;1.23;;;;;;;;;;5072786;28;20025;-74
2022/11/05 11:24:01;;;;;;;4.75;1.55;;;;;;;;;;5072763;28;20041;-73
2022/11/05 11:26:32;;;;;;;1.40;1.00;;;;;;;;;;5072668;28;20392;-73
2022/11/05 11:29:01;;;;;;;1.02;0.82;;;;;;;;;;5072250;28;20491;-74
2022/11/05 11:31:29;;;;;;;1.48;0.75;;;;;;;;;;5072532;28;20017;-74
2022/11/05 11:34:03;;;;;;;1.80;1.00;;;;;;;;;;5072625;28;20489;-74
2022/11/05 11:36:38;;;;;;;4.63;0.80;;;;;;;;;;5072229;28;20020;-74
2022/11/05 11:39:05;;;;;;;1.95;0.80;;;;;;;;;;5072347;28;20030;-74
2022/11/05 11:41:37;;;;;;;0.85;0.70;;;;;;;;;;5071202;28;20020;-73
2022/11/05 11:44:10;;;;;;;3.53;0.90;;;;;;;;;;5072129;28;20028;-73
2022/11/05 11:46:36;;;;;;;2.50;0.65;;;;;;;;;;5072284;28;20509;-73
2022/11/05 11:49:03;;;;;;;1.27;0.68;;;;;;;;;;5071046;28;20034;-73
2022/11/05 11:51:33;;;;;;;2.13;0.80;;;;;;;;;;5072287;28;20021;-73
2022/11/05 11:54:00;;;;;;;3.25;0.60;;;;;;;;;;5072264;28;20016;-73
2022/11/05 11:56:27;;;;;;;1.00;0.70;;;;;;;;;;5072417;28;20035;-73
2022/11/05 11:58:55;;;;;;;1.45;0.50;;;;;;;;;;5071899;28;20019;-74
2022/11/05 12:01:24;;;;;;;2.38;0.70;;;;;;;;;;5072465;28;20029;-73
2022/11/05 12:03:53;;;;;;;1.25;0.75;;;;;;;;;;5072404;28;20047;-73
2022/11/05 12:06:28;;;;;;;2.17;0.73;;;;;;;;;;5072363;28;20051;-73
2022/11/05 12:09:10;;;;;;;2.28;0.63;;;;;;;;;;5072078;28;20491;-73
2022/11/05 12:11:43;;;;;;;1.95;0.77;;;;;;;;;;5071482;28;20501;-73
2022/11/05 12:14:21;;;;;;;1.35;0.88;;;;;;;;;;5071903;28;20066;-73
2022/11/05 12:16:57;;;;;;;1.23;0.80;;;;;;;;;;5072170;28;20035;-73
2022/11/05 12:19:40;;;;;;;1.58;0.82;;;;;;;;;;5071709;28;20546;-73
2022/11/05 12:22:07;;;;;;;1.60;0.88;;;;;;;;;;5070542;28;20033;-73
2022/11/05 12:24:45;;;;;;;2.95;1.10;;;;;;;;;;5072259;28;20043;-71
2022/11/05 12:27:26;;;;;;;2.38;1.58;;;;;;;;;;5071502;28;20025;-73
2022/11/05 12:29:59;;;;;;;2.67;2.22;;;;;;;;;;5071827;28;20027;-73
2022/11/05 12:32:44;;;;;;;1.45;1.35;;;;;;;;;;5071788;28;20027;-73
2022/11/05 12:35:17;;;;;;;2.67;1.30;;;;;;;;;;5071377;28;20032;-73
2022/11/05 12:38:06;;;;;;;3.17;1.20;;;;;;;;;;5071970;28;20021;-73
2022/11/05 12:40:32;;;;;;;2.67;1.42;;;;;;;;;;5071386;28;20024;-73
2022/11/05 12:43:19;;;;;;;2.60;1.42;;;;;;;;;;5071801;28;20037;-73
2022/11/05 12:46:11;;;;;;;3.75;1.65;;;;;;;;;;5071780;28;20029;-73
2022/11/05 12:49:07;;;;;;;3.08;1.23;;;;;;;;;;5071594;28;20016;-73
2022/11/05 12:51:52;;;;;;;3.00;1.20;;;;;;;;;;5069393;28;20028;-73
2022/11/05 12:54:33;;;;;;;2.30;0.98;;;;;;;;;;5069381;28;20031;-74
2022/11/05 12:57:02;;;;;;;2.92;1.45;;;;;;;;;;5068880;28;20039;-73
2022/11/05 12:59:35;;;;;;;2.72;1.50;;;;;;;;;;5069188;28;20375;-71
2022/11/05 13:02:20;;;;;;;2.75;1.52;;;;;;;;;;5069384;28;20416;-73
2022/11/05 13:04:52;;;;;;;2.22;1.00;;;;;;;;;;5069433;28;20025;-73
2022/11/05 13:07:22;;;;;;;1.60;0.80;;;;;;;;;;5069388;28;20029;-74
2022/11/05 13:09:51;;;;;;;4.05;1.17;;;;;;;;;;5069100;28;20039;-73
2022/11/05 13:12:20;;;;;;;1.15;0.73;;;;;;;;;;5069231;28;20455;-73
2022/11/05 13:14:48;;;;;;;2.45;1.10;;;;;;;;;;5068809;28;20390;-73
2022/11/05 13:17:17;;;;;;;2.47;1.10;;;;;;;;;;5069036;28;20028;-73
2022/11/05 13:19:48;;;;;;;1.98;0.80;;;;;;;;;;5069111;28;20039;-73
2022/11/05 13:22:17;;;;;;;1.98;0.80;;;;;;;;;;5068988;28;20425;-73
2022/11/05 13:24:55;;;;;;;2.15;0.80;;;;;;;;;;5068670;28;20244;-73
2022/11/05 13:27:27;;;;;;;1.85;0.90;;;;;;;;;;5064674;28;20413;-73
2022/11/05 13:29:59;;;;;;;1.38;0.80;;;;;;;;;;5051069;28;20028;-72
2022/11/05 13:32:31;;;;;;;3.45;1.17;;;;;;;;;;5052667;28;20489;-73
2022/11/05 13:35:02;;;;;;;3.35;0.88;;;;;;;;;;5054627;28;20025;-72
2022/11/05 13:40:18;;;;;;;1.33;1.17;;;;;;;;;;5054184;28;20405;-73
2022/11/05 13:43:11;;;;;;;4.18;1.10;;;;;;;;;;5054699;28;20398;-74
2022/11/05 13:45:54;;;;;;;1.83;0.82;;;;;;;;;;5053704;28;20111;-73
2022/11/05 13:48:20;;;;;;;1.48;0.75;;;;;;;;;;5054578;28;20032;-73
2022/11/05 13:50:49;;;;;;;1.80;1.25;;;;;;;;;;5054671;28;20481;-74
2022/11/05 13:53:45;;;;;;;2.97;1.10;;;;;;;;;;5053992;28;20020;-73
2022/11/05 13:56:11;;;;;;;1.13;0.68;;;;;;;;;;5072235;28;20037;-73
2022/11/05 13:58:56;;;;;;;2.13;0.77;;;;;;;;;;5072563;28;20027;-73
2022/11/05 14:01:25;;;;;;;1.35;0.60;;;;;;;;;;5072076;28;20501;-73
2022/11/05 14:03:53;;;;;;;2.67;0.70;;;;;;;;;;5072106;28;20036;-73
2022/11/05 14:06:27;;;;;;;1.67;0.80;;;;;;;;;;5072153;28;20545;-73
2022/11/05 14:08:56;;;;;;;2.17;0.82;;;;;;;;;;5071472;28;20440;-73
2022/11/05 14:11:27;;;;;;;2.28;0.80;;;;;;;;;;5071742;28;20028;-73
2022/11/05 14:13:56;;;;;;;1.85;0.88;;;;;;;;;;5071853;28;20117;-73
2022/11/05 14:16:24;;;;;;;2.35;0.70;;;;;;;;;;5071903;28;20029;-73
2022/11/05 14:19:09;;;;;;;3.17;1.30;;;;;;;;;;5071811;28;20037;-73
2022/11/05 14:21:55;;;;;;;2.60;0.93;;;;;;;;;;5071600;28;20028;-73
2022/11/05 14:24:21;;;;;;;1.67;0.73;;;;;;;;;;5071605;28;20044;-73
2022/11/05 14:27:00;;;;;;;1.70;0.70;;;;;;;;;;5071779;28;20048;-73
2022/11/05 14:29:39;;;;;;;1.98;0.63;;;;;;;;;;5071368;28;20504;-73
2022/11/05 14:32:18;;;;;;;1.50;1.05;;;;;;;;;;5066171;28;20035;-72
2022/11/05 14:35:04;;;;;;;2.45;0.60;;;;;;;;;;5053824;28;20036;-72
2022/11/05 14:37:33;;;;;;;3.88;0.93;;;;;;;;;;5053259;28;20488;-72
2022/11/05 14:40:18;;;;;;;3.25;1.40;;;;;;;;;;5053800;28;20035;-73
2022/11/05 14:42:49;;;;;;;4.38;1.27;;;;;;;;;;5053274;28;20037;-73
2022/11/05 14:45:25;;;;;;;1.92;1.08;;;;;;;;;;5052226;28;20025;-73
2022/11/05 14:47:54;;;;;;;2.60;1.10;;;;;;;;;;5053392;28;20466;-73
2022/11/05 14:50:20;;;;;;;3.25;0.98;;;;;;;;;;5053448;28;20025;-73
2022/11/05 14:52:51;;;;;;;3.67;1.08;;;;;;;;;;5053114;28;20490;-73
2022/11/05 14:55:40;;;;;;;2.45;0.80;;;;;;;;;;5053658;28;20029;-73
2022/11/05 14:58:24;;;;;;;3.78;0.88;;;;;;;;;;5053173;28;20025;-73
2022/11/05 15:00:51;;;;;;;2.15;0.90;;;;;;;;;;5053248;28;20025;-72
2022/11/05 15:03:26;;;;;;;1.33;0.70;;;;;;;;;;5053409;28;20029;-73
2022/11/05 15:06:02;;;;;;;1.60;0.70;;;;;;;;;;5052812;28;20051;-73
2022/11/05 15:08:31;;;;;;;3.15;0.80;;;;;;;;;;5052890;28;20031;-72
2022/11/05 15:11:12;;;;;;;1.80;0.93;;;;;;;;;;5052631;28;20036;-73
2022/11/05 15:13:53;;;;;;;2.22;0.75;;;;;;;;;;5055553;28;20041;-73
2022/11/05 15:16:23;;;;;;;1.95;0.90;;;;;;;;;;5072958;28;20089;-73
2022/11/05 15:18:50;;;;;;;3.92;0.77;;;;;;;;;;5072492;28;20024;-72
2022/11/05 15:21:18;;;;;;;1.63;0.50;;;;;;;;;;5072683;28;20036;-73
2022/11/05 15:23:45;;;;;;;2.40;0.70;;;;;;;;;;5072602;28;20045;-73
2022/11/05 15:26:28;;;;;;;4.10;1.23;;;;;;;;;;5072807;28;20392;-73
2022/11/05 15:28:55;;;;;;;5.07;0.90;;;;;;;;;;5072512;28;20482;-73
2022/11/05 15:31:30;;;;;;;2.97;1.00;;;;;;;;;;5072991;28;20031;-73
2022/11/05 15:34:30;;;;;;;7.38;1.50;;;;;;;;;;5072658;28;20028;-73
2022/11/05 15:36:56;;;;;;;4.20;1.48;;;;;;;;;;5050456;28;20063;-73
2022/11/05 15:39:24;;;;;;;4.28;1.48;;;;;;;;;;5033613;28;20033;-72
2022/11/05 15:41:51;;;;;;;3.90;1.10;;;;;;;;;;5050203;28;20432;-73
2022/11/05 15:44:33;;;;;;;3.28;1.52;;;;;;;;;;5049965;28;20452;-73
2022/11/05 15:47:06;;;;;;;3.33;1.58;;;;;;;;;;5049774;28;20039;-73
2022/11/05 15:49:32;;;;;;;4.30;1.40;;;;;;;;;;5049940;28;20025;-73
2022/11/05 15:51:58;;;;;;;2.28;1.00;;;;;;;;;;5050306;28;20434;-73